createdAt,value
2023-02-20T00:00:02.031Z,1019.05
2023-02-20T00:01:02.016Z,1019.09
2023-02-20T00:02:02.007Z,1019.06
2023-02-20T00:03:01.999Z,1019.07
2023-02-20T00:04:01.994Z,1019.09
2023-02-20T00:05:01.967Z,1018.98
2023-02-20T00:06:01.961Z,1018.92
2023-02-20T00:07:01.949Z,1018.91
2023-02-20T00:08:01.939Z,1018.87
2023-02-20T00:09:01.934Z,1018.84
2023-02-20T00:10:01.921Z,1018.80
2023-02-20T00:11:01.901Z,1018.80
2023-02-20T00:12:01.895Z,1018.71
2023-02-20T00:13:01.881Z,1018.66
2023-02-20T00:14:01.882Z,1018.67
2023-02-20T00:15:01.861Z,1018.59
2023-02-20T00:16:01.891Z,1018.61
2023-02-20T00:17:01.836Z,1018.62
2023-02-20T00:18:01.831Z,1018.61
2023-02-20T00:19:01.825Z,1018.63
2023-02-20T00:20:01.807Z,1018.56
2023-02-20T00:21:01.795Z,1018.56
2023-02-20T00:22:01.785Z,1018.54
2023-02-20T00:23:01.769Z,1018.52
2023-02-20T00:24:01.779Z,1018.52
2023-02-20T00:25:01.754Z,1018.51
2023-02-20T00:26:01.743Z,1018.52
2023-02-20T00:27:01.729Z,1018.52
2023-02-20T00:28:01.736Z,1018.54
2023-02-20T00:29:01.706Z,1018.54
2023-02-20T00:30:01.795Z,1018.58
2023-02-20T00:31:01.758Z,1018.53
2023-02-20T00:32:01.715Z,1018.56
2023-02-20T00:33:01.673Z,1018.63
2023-02-20T00:34:01.651Z,1018.57
2023-02-20T00:35:01.680Z,1018.52
2023-02-20T00:36:01.632Z,1018.51
2023-02-20T00:37:01.631Z,1018.50
2023-02-20T00:38:01.606Z,1018.48
2023-02-20T00:39:01.600Z,1018.55
2023-02-20T00:40:01.598Z,1018.47
2023-02-20T00:41:01.584Z,1018.40
2023-02-20T00:42:01.564Z,1018.49
2023-02-20T00:43:01.567Z,1018.48
2023-02-20T00:44:01.542Z,1018.47
2023-02-20T00:45:01.545Z,1018.43
2023-02-20T00:46:01.589Z,1018.38
2023-02-20T00:47:01.526Z,1018.43
2023-02-20T00:48:01.496Z,1018.37
2023-02-20T00:49:01.497Z,1018.36
2023-02-20T00:50:01.488Z,1018.34
2023-02-20T00:51:01.471Z,1018.30
2023-02-20T00:52:01.451Z,1018.29
2023-02-20T00:53:01.444Z,1018.33
2023-02-20T00:54:01.431Z,1018.31
2023-02-20T00:55:01.432Z,1018.29
2023-02-20T00:56:01.411Z,1018.34
2023-02-20T00:57:01.409Z,1018.34
2023-02-20T00:58:01.387Z,1018.35
2023-02-20T00:59:01.384Z,1018.36
2023-02-20T01:00:01.376Z,1018.37
2023-02-20T01:01:01.361Z,1018.23
2023-02-20T01:02:01.345Z,1018.28
2023-02-20T01:03:01.375Z,1018.21
2023-02-20T01:04:01.341Z,1018.22
2023-02-20T01:05:01.325Z,1018.21
2023-02-20T01:06:01.294Z,1018.18
2023-02-20T01:07:01.292Z,1018.16
2023-02-20T01:08:01.273Z,1018.18
2023-02-20T01:09:01.268Z,1018.19
2023-02-20T01:10:01.278Z,1018.13
2023-02-20T01:11:01.252Z,1018.21
2023-02-20T01:12:01.230Z,1018.18
2023-02-20T01:13:01.233Z,1018.24
2023-02-20T01:14:01.206Z,1018.20
2023-02-20T01:15:01.205Z,1018.17
2023-02-20T01:16:01.192Z,1018.20
2023-02-20T01:17:01.185Z,1018.16
2023-02-20T01:18:01.167Z,1018.12
2023-02-20T01:19:01.158Z,1018.03
2023-02-20T01:20:01.150Z,1018.06
2023-02-20T01:21:01.134Z,1018.08
2023-02-20T01:22:01.135Z,1018.08
2023-02-20T01:23:01.112Z,1018.05
2023-02-20T01:24:01.093Z,1018.06
2023-02-20T01:25:01.101Z,1018.09
2023-02-20T01:26:01.087Z,1018.00
2023-02-20T01:27:01.064Z,1017.99
2023-02-20T01:28:01.051Z,1017.93
2023-02-20T01:29:01.063Z,1017.90
2023-02-20T01:30:01.034Z,1017.91
2023-02-20T01:31:01.049Z,1017.94
2023-02-20T01:32:01.170Z,1017.97
2023-02-20T01:33:00.997Z,1017.95
2023-02-20T01:34:00.985Z,1017.93
2023-02-20T01:35:00.980Z,1017.82
2023-02-20T01:36:00.965Z,1017.89
2023-02-20T01:37:00.959Z,1017.86
2023-02-20T01:38:00.951Z,1017.87
2023-02-20T01:39:00.938Z,1017.85
2023-02-20T01:40:00.928Z,1017.79
2023-02-20T01:41:00.910Z,1017.81
2023-02-20T01:42:00.925Z,1017.88
2023-02-20T01:43:00.895Z,1017.83
2023-02-20T01:44:00.878Z,1017.71
2023-02-20T01:45:00.877Z,1017.64
2023-02-20T01:46:00.857Z,1017.61
2023-02-20T01:47:00.863Z,1017.60
2023-02-20T01:48:00.838Z,1017.55
2023-02-20T01:49:00.823Z,1017.54
2023-02-20T01:50:00.821Z,1017.53
2023-02-20T01:51:00.812Z,1017.61
2023-02-20T01:52:00.796Z,1017.56
2023-02-20T01:53:00.774Z,1017.64
2023-02-20T01:54:00.768Z,1017.54
2023-02-20T01:55:00.755Z,1017.61
2023-02-20T01:56:00.759Z,1017.63
2023-02-20T01:57:00.756Z,1017.56
2023-02-20T01:58:00.728Z,1017.51
2023-02-20T01:59:00.712Z,1017.48
2023-02-20T02:00:00.725Z,1017.42
2023-02-20T02:01:00.756Z,1017.35
2023-02-20T02:02:00.737Z,1017.31
2023-02-20T02:03:00.668Z,1017.29
2023-02-20T02:04:00.666Z,1017.27
2023-02-20T02:05:00.643Z,1017.27
2023-02-20T02:06:00.649Z,1017.25
2023-02-20T02:07:00.626Z,1017.22
2023-02-20T02:08:00.618Z,1017.17
2023-02-20T02:09:00.600Z,1017.15
2023-02-20T02:10:00.600Z,1017.18
2023-02-20T02:11:00.602Z,1017.13
2023-02-20T02:12:00.575Z,1017.11
2023-02-20T02:13:00.562Z,1017.08
2023-02-20T02:14:00.546Z,1017.04
2023-02-20T02:15:00.537Z,1017.00
2023-02-20T02:16:00.555Z,1017.09
2023-02-20T02:17:00.510Z,1017.06
2023-02-20T02:18:00.506Z,1017.14
2023-02-20T02:19:00.493Z,1017.08
2023-02-20T02:20:00.481Z,1017.08
2023-02-20T02:21:00.468Z,1017.13
2023-02-20T02:22:00.453Z,1017.07
2023-02-20T02:23:00.439Z,1017.08
2023-02-20T02:24:00.445Z,1017.08
2023-02-20T02:25:00.419Z,1017.04
2023-02-20T02:26:00.422Z,1017.02
2023-02-20T02:27:00.396Z,1017.01
2023-02-20T02:28:00.383Z,1017.03
2023-02-20T02:29:00.378Z,1017.04
2023-02-20T02:30:00.362Z,1017.03
2023-02-20T02:31:00.420Z,1016.98
2023-02-20T02:32:00.397Z,1016.99
2023-02-20T02:33:00.336Z,1016.95
2023-02-20T02:34:00.380Z,1016.97
2023-02-20T02:35:00.306Z,1016.91
2023-02-20T02:36:00.304Z,1016.94
2023-02-20T02:37:00.281Z,1016.97
2023-02-20T02:38:00.276Z,1016.92
2023-02-20T02:39:00.260Z,1016.86
2023-02-20T02:40:00.252Z,1016.90
2023-02-20T02:41:00.248Z,1016.92
2023-02-20T02:42:00.232Z,1016.88
2023-02-20T02:43:00.215Z,1016.85
2023-02-20T02:44:00.207Z,1016.86
2023-02-20T02:45:00.191Z,1016.82
2023-02-20T02:46:00.278Z,1016.78
2023-02-20T02:47:00.176Z,1016.70
2023-02-20T02:48:00.172Z,1016.64
2023-02-20T02:49:00.166Z,1016.61
2023-02-20T02:50:00.212Z,1016.60
2023-02-20T02:51:00.133Z,1016.51
2023-02-20T02:52:00.121Z,1016.48
2023-02-20T02:53:00.108Z,1016.49
2023-02-20T02:54:00.101Z,1016.51
2023-02-20T02:55:00.126Z,1016.46
2023-02-20T02:56:00.110Z,1016.44
2023-02-20T02:57:00.086Z,1016.44
2023-02-20T02:58:00.068Z,1016.35
2023-02-20T02:59:00.038Z,1016.25
2023-02-20T03:00:00.033Z,1016.26
2023-02-20T03:01:00.070Z,1016.29
2023-02-20T03:02:00.010Z,1016.24
2023-02-20T03:02:59.992Z,1016.27
2023-02-20T03:03:59.988Z,1016.31
2023-02-20T03:04:59.971Z,1016.23
2023-02-20T03:05:59.976Z,1016.21
2023-02-20T03:06:59.950Z,1016.15
2023-02-20T03:07:59.948Z,1016.21
2023-02-20T03:08:59.928Z,1016.19
2023-02-20T03:09:59.924Z,1016.16
2023-02-20T03:10:59.916Z,1016.12
2023-02-20T03:11:59.908Z,1016.07
2023-02-20T03:12:59.884Z,1016.11
2023-02-20T03:13:59.872Z,1016.08
2023-02-20T03:14:59.862Z,1016.15
2023-02-20T03:15:59.862Z,1016.10
2023-02-20T03:16:59.840Z,1016.07
2023-02-20T03:17:59.830Z,1016.05
2023-02-20T03:18:59.814Z,1016.07
2023-02-20T03:19:59.808Z,1016.10
2023-02-20T03:20:59.809Z,1016.12
2023-02-20T03:21:59.798Z,1016.15
2023-02-20T03:22:59.780Z,1016.16
2023-02-20T03:23:59.767Z,1016.26
2023-02-20T03:24:59.750Z,1016.25
2023-02-20T03:25:59.754Z,1016.27
2023-02-20T03:27:53.149Z,1016.12
2023-02-20T03:28:54.137Z,1016.10
2023-02-20T03:29:54.121Z,1016.11
2023-02-20T03:30:54.119Z,1016.08
2023-02-20T03:31:54.170Z,1016.09
2023-02-20T03:32:54.090Z,1016.13
2023-02-20T03:33:54.076Z,1016.15
2023-02-20T03:34:54.071Z,1016.15
2023-02-20T03:35:54.055Z,1016.17
2023-02-20T03:36:54.061Z,1016.15
2023-02-20T03:37:54.034Z,1016.17
2023-02-20T03:38:54.043Z,1016.14
2023-02-20T03:39:54.017Z,1016.15
2023-02-20T03:40:54.006Z,1016.16
2023-02-20T03:41:54.001Z,1016.21
2023-02-20T03:42:53.986Z,1016.26
2023-02-20T03:43:54.001Z,1016.35
2023-02-20T03:44:53.972Z,1016.38
2023-02-20T03:45:53.971Z,1016.32
2023-02-20T03:46:53.948Z,1016.31
2023-02-20T03:47:53.928Z,1016.26
2023-02-20T03:48:53.922Z,1016.23
2023-02-20T03:49:53.918Z,1016.26
2023-02-20T03:50:53.897Z,1016.13
2023-02-20T03:51:53.890Z,1016.15
2023-02-20T03:52:53.873Z,1016.10
2023-02-20T03:53:53.856Z,1016.14
2023-02-20T03:54:53.858Z,1016.18
2023-02-20T03:55:53.837Z,1016.19
2023-02-20T03:56:53.846Z,1016.22
2023-02-20T03:57:53.820Z,1016.22
2023-02-20T03:58:53.806Z,1016.19
2023-02-20T03:59:53.794Z,1016.14
2023-02-20T04:00:53.787Z,1016.08
2023-02-20T04:01:53.780Z,1016.04
2023-02-20T04:02:53.766Z,1015.99
2023-02-20T04:03:53.746Z,1016.04
2023-02-20T04:04:53.741Z,1016.01
2023-02-20T04:05:53.726Z,1015.92
2023-02-20T04:06:53.727Z,1015.96
2023-02-20T04:07:53.703Z,1015.98
2023-02-20T04:08:53.695Z,1015.94
2023-02-20T04:09:53.686Z,1015.87
2023-02-20T04:10:53.672Z,1015.83
2023-02-20T04:11:53.669Z,1015.89
2023-02-20T04:12:53.656Z,1015.86
2023-02-20T04:13:53.637Z,1015.90
2023-02-20T04:14:53.632Z,1015.88
2023-02-20T04:15:53.614Z,1015.89
2023-02-20T04:16:53.689Z,1015.90
2023-02-20T04:17:53.595Z,1015.90
2023-02-20T04:18:53.590Z,1015.86
2023-02-20T04:19:53.569Z,1015.86
2023-02-20T04:20:53.592Z,1015.95
2023-02-20T04:21:53.601Z,1015.90
2023-02-20T04:22:53.541Z,1015.87
2023-02-20T04:23:53.528Z,1015.85
2023-02-20T04:24:53.531Z,1015.85
2023-02-20T04:25:53.510Z,1015.85
2023-02-20T04:26:53.506Z,1015.90
2023-02-20T04:27:53.490Z,1015.87
2023-02-20T04:28:53.475Z,1015.91
2023-02-20T04:29:53.460Z,1015.82
2023-02-20T04:30:53.485Z,1015.84
2023-02-20T04:31:53.491Z,1015.81
2023-02-20T04:32:53.438Z,1015.81
2023-02-20T04:33:53.412Z,1015.82
2023-02-20T04:34:53.408Z,1015.77
2023-02-20T04:35:53.390Z,1015.70
2023-02-20T04:36:53.384Z,1015.67
2023-02-20T04:37:53.375Z,1015.69
2023-02-20T04:38:53.374Z,1015.67
2023-02-20T04:39:53.348Z,1015.65
2023-02-20T04:40:53.342Z,1015.62
2023-02-20T04:41:53.327Z,1015.56
2023-02-20T04:42:53.327Z,1015.57
2023-02-20T04:43:53.302Z,1015.54
2023-02-20T04:44:53.294Z,1015.57
2023-02-20T04:45:53.297Z,1015.58
2023-02-20T04:46:53.288Z,1015.65
2023-02-20T04:47:53.269Z,1015.64
2023-02-20T04:48:53.250Z,1015.65
2023-02-20T04:49:53.240Z,1015.59
2023-02-20T04:50:53.229Z,1015.63
2023-02-20T04:51:53.216Z,1015.62
2023-02-20T04:52:53.212Z,1015.59
2023-02-20T04:53:53.189Z,1015.58
2023-02-20T04:54:53.176Z,1015.56
2023-02-20T04:55:53.174Z,1015.62
2023-02-20T04:56:53.165Z,1015.61
2023-02-20T04:57:53.158Z,1015.60
2023-02-20T04:58:53.139Z,1015.57
2023-02-20T04:59:53.134Z,1015.53
2023-02-20T05:00:53.114Z,1015.53
2023-02-20T05:01:53.105Z,1015.53
2023-02-20T05:02:53.098Z,1015.49
2023-02-20T05:03:53.086Z,1015.44
2023-02-20T05:04:53.098Z,1015.44
2023-02-20T05:05:53.062Z,1015.54
2023-02-20T05:06:53.073Z,1015.52
2023-02-20T05:07:53.055Z,1015.45
2023-02-20T05:08:53.029Z,1015.50
2023-02-20T05:09:53.018Z,1015.47
2023-02-20T05:10:53.006Z,1015.37
2023-02-20T05:11:53.009Z,1015.35
2023-02-20T05:12:52.998Z,1015.38
2023-02-20T05:13:52.974Z,1015.31
2023-02-20T05:14:55.548Z,1015.38
2023-02-20T05:15:52.985Z,1015.37
2023-02-20T05:16:52.942Z,1015.37
2023-02-20T05:17:52.941Z,1015.38
2023-02-20T05:18:52.928Z,1015.40
2023-02-20T05:19:52.923Z,1015.34
2023-02-20T05:20:52.894Z,1015.36
2023-02-20T05:21:52.891Z,1015.42
2023-02-20T05:22:52.880Z,1015.40
2023-02-20T05:23:52.876Z,1015.42
2023-02-20T05:24:52.853Z,1015.26
2023-02-20T05:25:52.847Z,1015.37
2023-02-20T05:26:52.834Z,1015.36
2023-02-20T05:27:52.831Z,1015.35
2023-02-20T05:28:52.805Z,1015.37
2023-02-20T05:29:52.801Z,1015.40
2023-02-20T05:30:52.805Z,1015.32
2023-02-20T05:31:52.947Z,1015.19
2023-02-20T05:32:52.772Z,1015.30
2023-02-20T05:33:52.756Z,1015.19
2023-02-20T05:34:52.745Z,1015.25
2023-02-20T05:35:52.738Z,1015.23
2023-02-20T05:36:52.718Z,1015.13
2023-02-20T05:37:52.727Z,1015.19
2023-02-20T05:38:52.697Z,1015.18
2023-02-20T05:39:52.699Z,1015.11
2023-02-20T05:40:52.674Z,1015.12
2023-02-20T05:41:52.669Z,1015.16
2023-02-20T05:42:52.661Z,1015.04
2023-02-20T05:43:52.650Z,1014.99
2023-02-20T05:44:52.635Z,1015.10
2023-02-20T05:45:52.629Z,1015.03
2023-02-20T05:46:52.607Z,1015.05
2023-02-20T05:47:52.616Z,1015.05
2023-02-20T05:48:52.593Z,1015.11
2023-02-20T05:49:52.586Z,1015.14
2023-02-20T05:50:52.562Z,1015.05
2023-02-20T05:51:52.557Z,1015.13
2023-02-20T05:52:52.556Z,1015.09
2023-02-20T05:53:52.542Z,1015.04
2023-02-20T05:54:52.518Z,1015.09
2023-02-20T05:55:52.520Z,1015.10
2023-02-20T05:56:52.502Z,1015.21
2023-02-20T05:57:52.500Z,1015.16
2023-02-20T05:58:52.490Z,1015.14
2023-02-20T05:59:52.476Z,1015.11
2023-02-20T06:00:52.453Z,1015.10
2023-02-20T06:01:52.452Z,1015.07
2023-02-20T06:02:52.444Z,1015.02
2023-02-20T06:03:52.452Z,1015.05
2023-02-20T06:04:52.488Z,1015.03
2023-02-20T06:05:52.491Z,1015.05
2023-02-20T06:06:52.408Z,1015.04
2023-02-20T06:07:52.391Z,1015.10
2023-02-20T06:08:52.369Z,1015.14
2023-02-20T06:09:52.372Z,1015.12
2023-02-20T06:10:52.350Z,1015.16
2023-02-20T06:11:52.337Z,1015.22
2023-02-20T06:12:52.329Z,1015.25
2023-02-20T06:13:52.314Z,1015.28
2023-02-20T06:14:52.318Z,1015.30
2023-02-20T06:15:52.419Z,1015.23
2023-02-20T06:16:52.277Z,1015.31
2023-02-20T06:17:52.317Z,1015.32
2023-02-20T06:18:52.266Z,1015.34
2023-02-20T06:19:52.257Z,1015.40
2023-02-20T06:20:52.233Z,1015.56
2023-02-20T06:21:52.230Z,1015.47
2023-02-20T06:22:52.211Z,1015.45
2023-02-20T06:23:52.212Z,1015.25
2023-02-20T06:24:52.190Z,1015.43
2023-02-20T06:25:52.186Z,1015.32
2023-02-20T06:26:52.178Z,1015.37
2023-02-20T06:27:52.157Z,1015.43
2023-02-20T06:28:52.156Z,1015.37
2023-02-20T06:29:52.136Z,1015.37
2023-02-20T06:30:52.127Z,1015.35
2023-02-20T06:31:52.260Z,1015.33
2023-02-20T06:32:52.113Z,1015.42
2023-02-20T06:33:52.102Z,1015.37
2023-02-20T06:34:52.098Z,1015.34
2023-02-20T06:35:52.072Z,1015.54
2023-02-20T06:36:52.068Z,1015.35
2023-02-20T06:37:52.053Z,1015.43
2023-02-20T06:38:52.055Z,1015.29
2023-02-20T06:39:52.031Z,1015.31
2023-02-20T06:40:52.023Z,1015.22
2023-02-20T06:41:52.009Z,1015.18
2023-02-20T06:42:52.003Z,1015.30
2023-02-20T06:43:52.092Z,1015.28
2023-02-20T06:44:52.036Z,1015.27
2023-02-20T06:45:52.188Z,1015.38
2023-02-20T06:46:51.959Z,1015.19
2023-02-20T06:47:51.943Z,1015.34
2023-02-20T06:48:51.956Z,1015.27
2023-02-20T06:49:51.921Z,1015.18
2023-02-20T06:50:51.928Z,1015.21
2023-02-20T06:51:51.902Z,1015.27
2023-02-20T06:52:51.895Z,1015.28
2023-02-20T06:53:52.596Z,1015.20
2023-02-20T06:54:51.871Z,1015.25
2023-02-20T06:55:51.855Z,1015.31
2023-02-20T06:56:51.854Z,1015.31
2023-02-20T06:57:51.843Z,1015.34
2023-02-20T06:58:52.600Z,1015.17
2023-02-20T06:59:51.819Z,1015.35
2023-02-20T07:00:51.827Z,1015.35
2023-02-20T07:01:51.825Z,1015.19
2023-02-20T07:02:51.786Z,1015.29
2023-02-20T07:03:51.777Z,1015.24
2023-02-20T07:04:51.762Z,1015.30
2023-02-20T07:05:51.747Z,1015.30
2023-02-20T07:06:51.738Z,1015.41
2023-02-20T07:07:51.723Z,1015.37
2023-02-20T07:08:51.731Z,1015.38
2023-02-20T07:09:51.703Z,1015.27
2023-02-20T07:10:51.696Z,1015.41
2023-02-20T07:11:51.680Z,1015.29
2023-02-20T07:12:51.671Z,1015.29
2023-02-20T07:13:51.671Z,1015.40
2023-02-20T07:14:51.654Z,1015.30
2023-02-20T07:15:51.666Z,1015.33
2023-02-20T07:16:51.643Z,1015.43
2023-02-20T07:17:51.618Z,1015.27
2023-02-20T07:18:51.635Z,1015.36
2023-02-20T07:19:51.595Z,1015.35
2023-02-20T07:20:53.525Z,1015.35
2023-02-20T07:21:51.580Z,1015.30
2023-02-20T07:22:51.565Z,1015.42
2023-02-20T07:23:51.555Z,1015.28
2023-02-20T07:24:51.548Z,1015.30
2023-02-20T07:25:51.527Z,1015.35
2023-02-20T07:26:51.521Z,1015.36
2023-02-20T07:27:51.510Z,1015.27
2023-02-20T07:28:54.078Z,1015.33
2023-02-20T07:29:51.498Z,1015.31
2023-02-20T07:30:51.488Z,1015.46
2023-02-20T07:31:51.567Z,1015.43
2023-02-20T07:32:51.454Z,1015.42
2023-02-20T07:33:51.453Z,1015.37
2023-02-20T07:35:03.657Z,1015.44
2023-02-20T07:35:51.422Z,1015.38
2023-02-20T07:36:51.444Z,1015.35
2023-02-20T07:37:51.396Z,1015.49
2023-02-20T07:38:51.399Z,1015.28
2023-02-20T07:39:51.372Z,1015.31
2023-02-20T07:40:51.365Z,1015.30
2023-02-20T07:41:51.361Z,1015.30
2023-02-20T07:42:51.356Z,1015.38
2023-02-20T07:43:51.338Z,1015.39
2023-02-20T07:44:51.324Z,1015.44
2023-02-20T07:45:51.338Z,1015.45
2023-02-20T07:46:51.299Z,1015.45
2023-02-20T07:47:51.288Z,1015.46
2023-02-20T07:48:51.309Z,1015.45
2023-02-20T07:49:51.264Z,1015.48
2023-02-20T07:50:51.269Z,1015.44
2023-02-20T07:51:51.242Z,1015.53
2023-02-20T07:52:51.246Z,1015.51
2023-02-20T07:53:51.225Z,1015.65
2023-02-20T07:54:51.224Z,1015.55
2023-02-20T07:55:51.200Z,1015.43
2023-02-20T07:56:51.193Z,1015.51
2023-02-20T07:57:51.176Z,1015.48
2023-02-20T07:58:51.170Z,1015.44
2023-02-20T07:59:51.276Z,1015.41
2023-02-20T08:00:51.260Z,1015.39
2023-02-20T08:01:51.154Z,1015.31
2023-02-20T08:02:51.137Z,1015.27
2023-02-20T08:03:51.111Z,1015.31
2023-02-20T08:04:51.212Z,1015.26
2023-02-20T08:05:51.146Z,1015.24
2023-02-20T08:06:51.086Z,1015.25
2023-02-20T08:07:51.065Z,1015.30
2023-02-20T08:08:51.074Z,1015.33
2023-02-20T08:09:51.058Z,1015.20
2023-02-20T08:10:57.111Z,1015.31
2023-02-20T08:11:51.028Z,1015.33
2023-02-20T08:12:51.015Z,1015.24
2023-02-20T08:13:50.999Z,1015.26
2023-02-20T08:14:51.002Z,1015.27
2023-02-20T08:15:51.001Z,1015.28
2023-02-20T08:16:50.977Z,1015.15
2023-02-20T08:17:52.375Z,1015.17
2023-02-20T08:18:50.983Z,1015.09
2023-02-20T08:19:50.940Z,1015.09
2023-02-20T08:20:50.928Z,1015.21
2023-02-20T08:21:50.920Z,1015.28
2023-02-20T08:22:50.908Z,1015.20
2023-02-20T08:23:50.891Z,1015.31
2023-02-20T08:24:50.893Z,1015.23
2023-02-20T08:25:50.872Z,1015.28
2023-02-20T08:26:50.862Z,1015.30
2023-02-20T08:27:50.861Z,1015.37
2023-02-20T08:28:50.840Z,1015.23
2023-02-20T08:29:50.833Z,1015.32
2023-02-20T08:30:50.817Z,1015.28
2023-02-20T08:31:50.893Z,1015.37
2023-02-20T08:32:50.958Z,1015.46
2023-02-20T08:33:50.781Z,1015.34
2023-02-20T08:34:50.790Z,1015.34
2023-02-20T08:35:50.787Z,1015.25
2023-02-20T08:36:50.756Z,1015.18
2023-02-20T08:37:50.765Z,1015.24
2023-02-20T08:38:50.731Z,1015.21
2023-02-20T08:39:50.735Z,1015.21
2023-02-20T08:40:50.707Z,1015.18
2023-02-20T08:41:50.692Z,1015.20
2023-02-20T08:42:50.692Z,1015.29
2023-02-20T08:43:50.674Z,1015.24
2023-02-20T08:44:50.675Z,1015.20
2023-02-20T08:45:50.699Z,1015.25
2023-02-20T08:46:50.663Z,1015.18
2023-02-20T08:47:50.626Z,1015.21
2023-02-20T08:48:50.622Z,1015.19
2023-02-20T08:49:50.613Z,1015.17
2023-02-20T08:50:50.598Z,1015.09
2023-02-20T08:51:50.582Z,1015.22
2023-02-20T08:52:50.575Z,1015.15
2023-02-20T08:53:50.577Z,1015.16
2023-02-20T08:54:50.566Z,1015.14
2023-02-20T08:55:50.540Z,1015.12
2023-02-20T08:56:50.534Z,1015.07
2023-02-20T08:57:50.523Z,1015.05
2023-02-20T08:58:50.515Z,1015.14
2023-02-20T08:59:50.559Z,1015.15
2023-02-20T09:00:50.534Z,1015.16
2023-02-20T09:01:50.479Z,1015.12
2023-02-20T09:02:50.499Z,1015.10
2023-02-20T09:03:50.456Z,1015.10
2023-02-20T09:04:50.439Z,1015.04
2023-02-20T09:05:50.456Z,1015.06
2023-02-20T09:06:50.422Z,1015.01
2023-02-20T09:07:50.411Z,1014.97
2023-02-20T09:08:50.396Z,1014.99
2023-02-20T09:09:50.388Z,1014.80
2023-02-20T09:10:50.384Z,1014.94
2023-02-20T09:11:50.366Z,1014.93
2023-02-20T09:12:50.359Z,1014.99
2023-02-20T09:13:50.344Z,1014.97
2023-02-20T09:14:50.360Z,1014.92
2023-02-20T09:15:50.341Z,1014.90
2023-02-20T09:16:50.376Z,1014.86
2023-02-20T09:17:50.322Z,1014.93
2023-02-20T09:18:50.297Z,1014.83
2023-02-20T09:19:50.339Z,1014.89
2023-02-20T09:20:50.276Z,1014.88
2023-02-20T09:21:50.257Z,1014.86
2023-02-20T09:22:50.246Z,1014.90
2023-02-20T09:23:50.317Z,1014.93
2023-02-20T09:24:50.244Z,1014.93
2023-02-20T09:25:50.223Z,1014.90
2023-02-20T09:26:50.202Z,1014.89
2023-02-20T09:27:56.225Z,1014.86
2023-02-20T09:28:50.190Z,1014.88
2023-02-20T09:29:50.170Z,1014.84
2023-02-20T09:30:50.171Z,1014.84
2023-02-20T09:31:50.262Z,1014.82
2023-02-20T09:32:50.133Z,1014.76
2023-02-20T09:33:51.613Z,1014.67
2023-02-20T09:34:50.125Z,1014.81
2023-02-20T09:35:50.114Z,1014.63
2023-02-20T09:36:50.093Z,1014.78
2023-02-20T09:37:50.089Z,1014.81
2023-02-20T09:38:50.067Z,1014.74
2023-02-20T09:39:50.063Z,1014.66
2023-02-20T09:40:50.054Z,1014.70
2023-02-20T09:41:50.039Z,1014.66
2023-02-20T09:42:50.024Z,1014.65
2023-02-20T09:43:50.025Z,1014.62
2023-02-20T09:44:50.006Z,1014.60
2023-02-20T09:45:50.059Z,1014.64
2023-02-20T09:46:49.979Z,1014.74
2023-02-20T09:47:49.984Z,1014.66
2023-02-20T09:48:49.966Z,1014.64
2023-02-20T09:49:49.963Z,1014.63
2023-02-20T09:50:49.949Z,1014.72
2023-02-20T09:51:49.928Z,1014.48
2023-02-20T09:52:49.913Z,1014.68
2023-02-20T09:53:49.914Z,1014.35
2023-02-20T09:54:49.891Z,1014.41
2023-02-20T09:55:49.895Z,1014.47
2023-02-20T09:56:49.873Z,1014.37
2023-02-20T09:57:50.022Z,1014.50
2023-02-20T09:58:49.857Z,1014.40
2023-02-20T09:59:49.843Z,1014.31
2023-02-20T10:00:49.836Z,1014.56
2023-02-20T10:01:49.821Z,1014.45
2023-02-20T10:02:49.957Z,1014.53
2023-02-20T10:03:49.804Z,1014.52
2023-02-20T10:05:00.975Z,1014.41
2023-02-20T10:05:49.920Z,1014.57
2023-02-20T10:06:49.768Z,1014.38
2023-02-20T10:07:49.752Z,1014.38
2023-02-20T10:08:49.738Z,1014.44
2023-02-20T10:09:49.729Z,1014.12
2023-02-20T10:10:51.628Z,1014.43
2023-02-20T10:11:49.708Z,1014.47
2023-02-20T10:12:49.730Z,1014.45
2023-02-20T10:13:49.685Z,1014.40
2023-02-20T10:14:49.673Z,1014.43
2023-02-20T10:15:49.668Z,1014.42
2023-02-20T10:16:49.658Z,1014.43
2023-02-20T10:17:49.649Z,1014.57
2023-02-20T10:18:49.629Z,1014.57
2023-02-20T10:19:49.625Z,1014.63
2023-02-20T10:20:49.620Z,1014.56
2023-02-20T10:21:49.615Z,1014.63
2023-02-20T10:22:49.585Z,1014.77
2023-02-20T10:24:03.736Z,1014.73
2023-02-20T10:24:49.576Z,1014.74
2023-02-20T10:25:49.563Z,1014.76
2023-02-20T10:26:49.552Z,1014.67
2023-02-20T10:27:49.537Z,1014.70
2023-02-20T10:28:49.590Z,1014.70
2023-02-20T10:29:49.515Z,1014.74
2023-02-20T10:30:49.703Z,1014.72
2023-02-20T10:31:49.612Z,1014.72
2023-02-20T10:32:49.481Z,1014.63
2023-02-20T10:33:49.470Z,1014.63
2023-02-20T10:34:49.454Z,1014.61
2023-02-20T10:35:49.459Z,1014.63
2023-02-20T10:36:49.445Z,1014.67
2023-02-20T10:37:49.426Z,1014.73
2023-02-20T10:38:49.437Z,1014.72
2023-02-20T10:39:49.427Z,1014.92
2023-02-20T10:40:49.420Z,1014.74
2023-02-20T10:41:49.392Z,1014.78
2023-02-20T10:42:49.370Z,1014.83
2023-02-20T10:43:49.383Z,1014.86
2023-02-20T10:44:52.604Z,1014.79
2023-02-20T10:45:49.367Z,1014.85
2023-02-20T10:46:49.864Z,1014.92
2023-02-20T10:47:49.317Z,1014.95
2023-02-20T10:48:49.309Z,1014.99
2023-02-20T10:49:49.295Z,1015.02
2023-02-20T10:50:49.280Z,1014.94
2023-02-20T10:51:49.298Z,1014.93
2023-02-20T10:52:49.261Z,1014.97
2023-02-20T10:53:49.256Z,1015.00
2023-02-20T10:54:49.240Z,1014.96
2023-02-20T10:55:49.238Z,1015.01
2023-02-20T10:56:49.223Z,1015.06
2023-02-20T10:57:49.215Z,1015.17
2023-02-20T10:58:49.189Z,1015.09
2023-02-20T10:59:51.592Z,1015.14
2023-02-20T11:00:49.958Z,1015.11
2023-02-20T11:01:49.452Z,1015.14
2023-02-20T11:02:49.147Z,1015.11
2023-02-20T11:03:49.179Z,1015.10
2023-02-20T11:04:49.224Z,1015.15
2023-02-20T11:05:49.219Z,1015.16
2023-02-20T11:06:49.184Z,1015.18
2023-02-20T11:07:49.110Z,1015.17
2023-02-20T11:08:49.116Z,1015.07
2023-02-20T11:09:49.103Z,1015.02
2023-02-20T11:10:49.058Z,1015.10
2023-02-20T11:11:49.080Z,1015.02
2023-02-20T11:12:49.032Z,1015.05
2023-02-20T11:13:49.124Z,1014.99
2023-02-20T11:14:49.019Z,1014.95
2023-02-20T11:15:49.028Z,1014.93
2023-02-20T11:16:49.013Z,1014.93
2023-02-20T11:17:48.984Z,1014.88
2023-02-20T11:18:48.986Z,1015.00
2023-02-20T11:19:49.020Z,1015.03
2023-02-20T11:20:48.948Z,1015.03
2023-02-20T11:21:48.953Z,1014.99
2023-02-20T11:22:48.926Z,1014.99
2023-02-20T11:23:48.929Z,1015.04
2023-02-20T11:24:48.905Z,1015.06
2023-02-20T11:25:48.927Z,1015.01
2023-02-20T11:26:48.899Z,1015.05
2023-02-20T11:27:48.872Z,1014.88
2023-02-20T11:28:48.861Z,1015.00
2023-02-20T11:29:48.854Z,1014.88
2023-02-20T11:30:48.867Z,1015.03
2023-02-20T11:31:48.978Z,1015.00
2023-02-20T11:32:48.817Z,1015.01
2023-02-20T11:33:48.814Z,1015.00
2023-02-20T11:34:48.798Z,1015.00
2023-02-20T11:35:48.818Z,1014.95
2023-02-20T11:36:48.796Z,1014.94
2023-02-20T11:37:55.300Z,1014.85
2023-02-20T11:38:48.760Z,1014.70
2023-02-20T11:39:48.756Z,1014.78
2023-02-20T11:40:48.739Z,1014.64
2023-02-20T11:41:48.724Z,1014.64
2023-02-20T11:42:48.740Z,1014.63
2023-02-20T11:44:00.778Z,1014.69
2023-02-20T11:44:48.692Z,1014.64
2023-02-20T11:45:48.686Z,1014.59
2023-02-20T11:46:48.673Z,1014.51
2023-02-20T11:47:48.669Z,1014.43
2023-02-20T11:48:48.647Z,1014.34
2023-02-20T11:49:48.646Z,1014.42
2023-02-20T11:50:48.618Z,1014.41
2023-02-20T11:51:48.624Z,1014.25
2023-02-20T11:52:48.658Z,1014.15
2023-02-20T11:53:48.592Z,1014.04
2023-02-20T11:54:48.575Z,1014.00
2023-02-20T11:55:58.717Z,1013.93
2023-02-20T11:56:48.559Z,1013.84
2023-02-20T11:57:48.561Z,1013.83
2023-02-20T11:58:48.529Z,1013.86
2023-02-20T11:59:48.539Z,1013.88
2023-02-20T12:00:48.512Z,1013.77
2023-02-20T12:02:00.366Z,1013.70
2023-02-20T12:02:48.600Z,1013.75
2023-02-20T12:03:50.925Z,1013.70
2023-02-20T12:04:48.461Z,1013.76
2023-02-20T12:05:48.532Z,1013.76